AirNav   Duncan Aviation - Near you to keep you flying
 
 1025 users online  

74MU Koala-T Field Airport
Hawk Point, Missouri, USA

GOING TO HAWK POINT?


FAA INFORMATION EFFECTIVE 03 NOVEMBER 2022

Location

FAA Identifier: 74MU
Lat/Long: 39-02-23.6100N 091-07-49.6050W
39-02.393500N 091-07.826750W
39.0398917,-91.1304458
(estimated)
Elevation: 690 ft. / 210 m (estimated)
Variation: 02E (1995)
From city: 5 miles N of HAWK POINT, MO
Time zone: UTC -6 (UTC -5 during Daylight Saving Time)
Zip code: 63349

Airport Operations

Airport use: Private use. Permission required prior to landing
Activation date: 05/1995
Control tower: no
ARTCC: KANSAS CITY CENTER
FSS: SAINT LOUIS FLIGHT SERVICE STATION
Attendance: UNATNDD
Segmented circle: no

Nearby radio navigation aids

VOR radial/distance  VOR name  Freq  Var
FTZr335/22.0FORISTELL VORTAC110.8005E
STLr289/32.1ST LOUIS VORTAC117.4001E

Airport Services

Runway Information

Runway 1/19

Dimensions: 1800 x 40 ft. / 549 x 12 m
Surface: turf
RUNWAY 1  RUNWAY 19
Latitude: 39-02.248667N39-02.538333N
Longitude: 091-07.866833W091-07.786667W
Elevation: 687.0 ft.670.0 ft.
Traffic pattern: rightleft
Obstructions: 25 ft. pline, 300 ft. from runway30 ft. trees, 300 ft. from runway

Airport Ownership and Management from official FAA records

Ownership: Privately-owned
Owner: JOHN & MAUREEN F MORDICA, JR
1530 HWY D; PO BOX 188
HAWK POINT, MO 63349
Phone 636-338-4189
Manager: JOHN & MAUREEN F MORDICA, JR
1530 HWY D; PO BOX 188
HAWK POINT, MO 63349
Phone 636-338-4189

Airport Operational Statistics

Aircraft based on the field: 1
Single engine airplanes: 1
    

Additional Remarks

ALL TFC REMAIN EAST OF THE RY.
FOR CD CTC MIZZOU APCH AT 417-868-5620/5619.

Instrument Procedures

There are no published instrument procedures at 74MU.

Some nearby airports with instrument procedures:

H19 - Bowling Green Municipal Airport (20 nm N)
KFYG - Washington Regional Airport (28 nm S)
KSUS - Spirit of St Louis Airport (32 nm SE)
KMYJ - Mexico Memorial Airport (33 nm W)
KSET - St Charles County Smartt Airport (33 nm E)
 
Loc | Ops | Rwys | IFR | FBO | Links
Com | Nav | Svcs | Stats | Notes
Area around 74MU (Koala-T Field Airport)
 
Road maps at: MapQuest Bing Google
 
Aerial photo
WARNING: Photo may not be current or correct
Aerial photo of 74MU (Koala-T Field Airport)
Taken in January 2006

Do you have a better or more recent aerial photo of Koala-T Field Airport that you would like to share? If so, please send us your photo.

 
Sectional chart

 
Airport distance calculator
Flying to Koala-T Field Airport? Find the distance to fly.

From to 74MU

Sunrise and sunset
Times for 29-Nov-2022
 Local
(UTC-6)
 Zulu
(UTC)
Morning civil twilight06:3412:34
Sunrise07:0413:04
Sunset16:4222:42
Evening civil twilight17:1223:12

Current date and time
Zulu (UTC)  30-Nov-2022 00:24:30
Local (UTC-6)  29-Nov-2022 18:24:30
 
METAR
KFYG 
28nm S 
292355Z AUTO 30020G28KT 10SM FEW038 SCT046 BKN055 17/09 A2959 RMK AO2
KSUS 
32nm SE 
292354Z 26006KT 10SM -RA SCT034 BKN045 OVC095 16/12 A2957 RMK AO2 RAB46 SLP012 P0000 60000 T01560122 10178 20156 53017
KMYJ 
33nm W 
292355Z AUTO 28020G26KT 10SM 03/01 A2969 RMK AO2
KSET 
33nm E 
292354Z AUTO 19009KT 10SM FEW044 BKN095 14/12 A2956 RMK AO2 SLP008 60000 T01440117 10183 20139 53012
KPPQ 
39nm NE 
292355Z AUTO 30018G23KT 10SM SCT060 SCT080 10/05 A2962 RMK AO2 T00980052 10193 20098
KSTL 
40nm SE 
292351Z 18008KT 10SM FEW060 BKN095 16/12 A2957 RMK AO2 SLP013 T01560117 10172 20150 53008 $
KHAE 
44nm N 
292355Z AUTO 30023G29KT 10SM SCT018 BKN027 BKN100 05/01 A2966 RMK AO2
KUUV 
48nm S 
292355Z AUTO 26009KT 10SM SCT029 BKN040 OVC049 16/12 A2962 RMK AO2
TAF
KSUS 
32nm SE 
292057Z 2921/3018 19015G30KT P6SM SCT030 BKN045 FM292300 22013G24KT P6SM VCSH SCT025 BKN040 FM300200 29014G27KT P6SM BKN040 FM300400 30015G26KT P6SM SCT030
KSTL 
40nm SE 
292057Z 2921/3024 18012G24KT P6SM SCT040 FM300000 22013G24KT P6SM VCSH SCT025 BKN040 FM300200 29014G27KT P6SM BKN040 FM300400 30015G26KT P6SM SCT030
NOTAMs
Click for the latest NOTAMs
NOTAMs are issued by the DoD/FAA and will open in a separate window not controlled by AirNav.

 

 
 

Would you like to see your business listed on this page?

 If your business provides an interesting product or service to pilots, flight crews, aircraft, or users of the Koala-T Field Airport, you should consider listing it here.  To start the listing process, click on the button below
 
Add a business
 

Other Pages about Koala-T Field Airport

Update a link
 
Copyright © AirNav, LLC. All rights reserved. Privacy Policy  Contact